Time;durP1;ratioP1;P1;durP2;ratioP2;P2;SDS_P1;SDS_P2;PMS_P1;PMS_P2;Temp;Humidity;BMP_temperature;BMP_pressure;BME280_temperature;BME280_humidity;BME280_pressure;Samples;Min_cycle;Max_cycle;Signal;HPM_P1;HPM_P2
2022/09/03 00:00:09;;;;;;;1.30;1.00;;;15.00;64.40;;;;;;4979636;28;20181;-92
2022/09/03 00:02:57;;;;;;;1.00;0.90;;;14.90;64.50;;;;;;4979196;28;20224;-92
2022/09/03 00:05:50;;;;;;;1.23;1.13;;;14.90;64.60;;;;;;5032765;28;20289;-93
2022/09/03 00:08:41;;;;;;;1.90;1.00;;;14.90;64.60;;;;;;5056145;28;20200;-92
2022/09/03 00:11:38;;;;;;;2.50;1.10;;;14.90;64.60;;;;;;5056331;28;20173;-92
2022/09/03 00:14:13;;;;;;;2.63;1.10;;;14.90;64.70;;;;;;5056351;28;20247;-93
2022/09/03 00:16:48;;;;;;;1.10;1.00;;;14.80;65.00;;;;;;5056639;28;20166;-92
2022/09/03 00:19:19;;;;;;;1.47;1.00;;;14.80;65.10;;;;;;5056638;28;20195;-92
2022/09/03 00:21:50;;;;;;;1.87;1.20;;;14.80;65.10;;;;;;5055406;28;20175;-92
2022/09/03 00:24:19;;;;;;;1.50;1.13;;;14.70;65.20;;;;;;5056416;28;20168;-92
2022/09/03 00:26:56;;;;;;;1.73;1.20;;;14.70;65.30;;;;;;5055308;28;20188;-92
2022/09/03 00:29:31;;;;;;;1.10;1.00;;;14.70;65.30;;;;;;5055938;28;20203;-92
2022/09/03 00:32:03;;;;;;;1.40;1.00;;;14.70;65.30;;;;;;5055382;28;20168;-92
2022/09/03 00:34:34;;;;;;;3.90;1.20;;;14.70;65.40;;;;;;5055595;28;20164;-92
2022/09/03 00:37:00;;;;;;;2.30;1.57;;;14.60;65.40;;;;;;5053919;28;20164;-91
2022/09/03 00:39:27;;;;;;;1.27;1.03;;;14.60;65.50;;;;;;5055802;28;20190;-92
2022/09/03 00:42:27;;;;;;;2.53;1.27;;;14.60;65.60;;;;;;5055985;28;20176;-91
2022/09/03 00:44:53;;;;;;;1.60;1.20;;;14.60;65.70;;;;;;5056081;28;20229;-92
2022/09/03 00:47:45;;;;;;;1.53;1.17;;;14.50;65.70;;;;;;5055105;28;20770;-92
2022/09/03 00:50:26;;;;;;;4.77;1.17;;;14.50;65.80;;;;;;5055520;28;20634;-92
2022/09/03 00:53:16;;;;;;;1.97;1.03;;;14.50;65.80;;;;;;5055934;28;20662;-92
2022/09/03 00:56:05;;;;;;;0.97;0.93;;;14.50;65.90;;;;;;5055053;28;20164;-92
2022/09/03 00:58:50;;;;;;;1.00;1.00;;;14.40;66.10;;;;;;5054542;28;20271;-92
2022/09/03 01:01:22;;;;;;;3.53;1.10;;;14.40;66.40;;;;;;5054977;28;20160;-92
2022/09/03 01:04:06;;;;;;;4.83;1.33;;;14.30;66.50;;;;;;5055941;28;20296;-92
2022/09/03 01:07:17;;;;;;;2.43;1.13;;;14.30;66.60;;;;;;5053966;28;20159;-92
2022/09/03 01:10:26;;;;;;;1.20;1.10;;;14.20;66.90;;;;;;5029491;28;20211;-92
2022/09/03 01:12:57;;;;;;;1.30;1.20;;;14.20;67.20;;;;;;5053907;28;20256;-92
2022/09/03 01:15:29;;;;;;;2.03;1.20;;;14.10;67.40;;;;;;5054158;28;20168;-91
2022/09/03 01:18:24;;;;;;;2.57;1.23;;;14.00;67.70;;;;;;5054286;28;20199;-92
2022/09/03 01:21:12;;;;;;;3.10;1.17;;;14.00;68.00;;;;;;5054443;28;20654;-92
2022/09/03 01:24:08;;;;;;;1.17;0.90;;;13.90;68.20;;;;;;5055347;28;20584;-92
2022/09/03 01:26:46;;;;;;;5.80;1.43;;;13.90;68.30;;;;;;5054323;28;20172;-92
2022/09/03 01:29:46;;;;;;;3.10;1.30;;;13.90;68.40;;;;;;5054372;28;20219;-92
2022/09/03 01:32:24;;;;;;;1.60;1.10;;;13.90;68.60;;;;;;5044278;28;20286;-92
2022/09/03 01:35:26;;;;;;;4.37;1.30;;;13.90;68.70;;;;;;5055467;28;20196;-92
2022/09/03 01:38:13;;;;;;;3.50;1.50;;;13.80;68.60;;;;;;5055220;28;20682;-92
2022/09/03 01:40:57;;;;;;;5.20;1.27;;;13.80;68.80;;;;;;5056148;28;20164;-92
2022/09/03 01:43:34;;;;;;;1.23;1.10;;;13.80;68.80;;;;;;5054475;28;20175;-92
2022/09/03 01:46:18;;;;;;;2.10;1.10;;;13.80;68.90;;;;;;5056651;28;20164;-92
2022/09/03 01:48:54;;;;;;;1.67;1.30;;;13.80;69.00;;;;;;5055161;28;20273;-92
2022/09/03 01:51:26;;;;;;;2.10;1.20;;;13.80;69.00;;;;;;5055004;28;20176;-92
2022/09/03 01:54:17;;;;;;;3.73;1.40;;;13.80;69.10;;;;;;5055333;28;20180;-92
2022/09/03 01:57:19;;;;;;;1.20;1.10;;;13.80;69.30;;;;;;5055185;28;20164;-92
2022/09/03 02:00:00;;;;;;;1.47;1.20;;;13.70;69.40;;;;;;5054570;28;20255;-92
2022/09/03 02:02:27;;;;;;;1.20;1.10;;;13.70;69.50;;;;;;5054408;28;20580;-92
2022/09/03 02:05:11;;;;;;;1.80;1.23;;;13.70;69.60;;;;;;5054080;28;20203;-92
2022/09/03 02:07:40;;;;;;;1.97;1.53;;;13.70;69.50;;;;;;5054352;28;20195;-92
2022/09/03 02:10:14;;;;;;;1.83;1.17;;;13.60;69.70;;;;;;5053778;28;20196;-92
2022/09/03 02:12:45;;;;;;;3.07;1.20;;;13.50;70.00;;;;;;5054277;28;20202;-92
2022/09/03 02:15:15;;;;;;;1.63;1.10;;;13.50;70.10;;;;;;5053662;28;20630;-92
2022/09/03 02:17:42;;;;;;;1.47;1.20;;;13.50;70.00;;;;;;5053308;28;20200;-92
2022/09/03 02:20:14;;;;;;;1.67;1.30;;;13.50;70.00;;;;;;5054738;28;20176;-92
2022/09/03 02:22:41;;;;;;;4.03;1.40;;;13.50;70.10;;;;;;5053572;28;20217;-92
2022/09/03 02:25:07;;;;;;;1.97;1.50;;;13.50;70.30;;;;;;5053660;28;20274;-92
2022/09/03 02:27:33;;;;;;;1.70;1.33;;;13.40;70.40;;;;;;5053621;28;20207;-92
2022/09/03 02:29:59;;;;;;;2.77;1.47;;;13.40;70.40;;;;;;5053422;28;20196;-92
2022/09/03 02:32:25;;;;;;;1.73;1.27;;;13.40;70.50;;;;;;5053353;28;20176;-91
2022/09/03 02:34:51;;;;;;;3.27;1.43;;;13.30;70.70;;;;;;5053876;28;20570;-92
2022/09/03 02:37:18;;;;;;;1.80;1.40;;;13.30;70.90;;;;;;5058270;28;20192;-92
2022/09/03 02:39:44;;;;;;;1.73;1.20;;;13.20;70.90;;;;;;5058039;28;20183;-92
2022/09/03 02:42:12;;;;;;;2.53;2.13;;;13.30;71.00;;;;;;5058054;28;20214;-91
2022/09/03 02:45:07;;;;;;;1.80;1.10;;;13.20;71.00;;;;;;5057407;28;20195;-92
2022/09/03 02:47:35;;;;;;;2.10;1.30;;;13.20;71.10;;;;;;5028944;28;20216;-91
2022/09/03 02:50:00;;;;;;;1.93;1.53;;;13.10;71.30;;;;;;5056303;28;20581;-92
2022/09/03 02:52:26;;;;;;;3.00;1.13;;;13.10;71.40;;;;;;5056942;28;20172;-92
2022/09/03 02:54:52;;;;;;;1.90;1.57;;;13.00;71.60;;;;;;5057245;28;20628;-92
2022/09/03 02:57:17;;;;;;;2.87;1.47;;;13.00;71.80;;;;;;5057836;28;20202;-92
2022/09/03 02:59:44;;;;;;;2.03;1.30;;;13.00;72.00;;;;;;5056059;28;20176;-92
2022/09/03 03:02:11;;;;;;;1.87;1.40;;;12.90;72.00;;;;;;5056167;28;20180;-92
2022/09/03 03:04:37;;;;;;;1.40;1.30;;;12.90;72.20;;;;;;5056236;28;20669;-92
2022/09/03 03:07:03;;;;;;;3.53;1.27;;;12.80;72.40;;;;;;5056160;28;20271;-92
2022/09/03 03:09:28;;;;;;;3.80;1.70;;;12.80;72.50;;;;;;5056465;28;20223;-92
2022/09/03 03:11:54;;;;;;;2.03;1.27;;;12.80;72.50;;;;;;5056645;28;20215;-92
2022/09/03 03:14:21;;;;;;;4.30;2.33;;;12.80;72.60;;;;;;5055915;28;20183;-92
2022/09/03 03:16:47;;;;;;;3.83;1.40;;;12.70;72.80;;;;;;5056187;28;20646;-91
2022/09/03 03:19:13;;;;;;;3.83;1.60;;;12.70;72.80;;;;;;5055627;28;20207;-91
2022/09/03 03:21:39;;;;;;;6.57;1.40;;;12.70;73.00;;;;;;5055568;28;20190;-92
2022/09/03 03:24:05;;;;;;;7.37;1.53;;;12.60;73.20;;;;;;5055596;28;20314;-91
2022/09/03 03:26:31;;;;;;;1.30;1.20;;;12.60;73.30;;;;;;5055933;28;20180;-91
2022/09/03 03:28:58;;;;;;;2.50;1.30;;;12.60;73.30;;;;;;5056521;28;20199;-92
2022/09/03 03:31:24;;;;;;;2.13;1.30;;;12.50;73.50;;;;;;5055645;28;20172;-91
2022/09/03 03:33:55;;;;;;;4.03;1.60;;;12.50;73.60;;;;;;5056161;28;20180;-92
2022/09/03 03:36:22;;;;;;;1.67;1.57;;;12.50;73.60;;;;;;5055687;28;20270;-92
2022/09/03 03:38:48;;;;;;;2.13;1.37;;;12.40;73.60;;;;;;5055531;28;20569;-92
2022/09/03 03:41:22;;;;;;;1.53;1.43;;;12.40;73.80;;;;;;5056478;28;20179;-91
2022/09/03 03:43:53;;;;;;;3.10;1.60;;;12.40;73.80;;;;;;5056175;28;20160;-92
2022/09/03 03:46:20;;;;;;;1.57;1.30;;;12.40;73.90;;;;;;5055405;28;20168;-91
2022/09/03 03:48:51;;;;;;;1.97;1.43;;;12.30;74.00;;;;;;5055346;28;20211;-92
2022/09/03 03:51:18;;;;;;;5.73;1.63;;;12.30;74.10;;;;;;5055440;28;20239;-92
2022/09/03 03:53:45;;;;;;;1.40;1.30;;;12.30;74.20;;;;;;5055495;28;20180;-91
2022/09/03 03:56:13;;;;;;;6.63;1.50;;;12.40;74.20;;;;;;5055088;28;20199;-92
2022/09/03 03:58:41;;;;;;;2.17;1.33;;;12.40;74.20;;;;;;5055389;28;20195;-91
2022/09/03 04:01:19;;;;;;;3.60;1.53;;;12.40;74.10;;;;;;5056169;28;20535;-91
2022/09/03 04:03:45;;;;;;;4.63;1.70;;;12.40;74.20;;;;;;5056117;28;20176;-92
2022/09/03 04:06:12;;;;;;;3.33;1.43;;;12.30;74.30;;;;;;5055888;28;20172;-91
2022/09/03 04:08:40;;;;;;;2.67;1.40;;;12.30;74.40;;;;;;5055576;28;20195;-91
2022/09/03 04:11:08;;;;;;;3.13;1.33;;;12.30;74.40;;;;;;5055643;28;20180;-92
2022/09/03 04:13:39;;;;;;;1.30;1.20;;;12.30;74.30;;;;;;5055895;28;20183;-91
2022/09/03 04:16:16;;;;;;;1.40;1.30;;;12.30;74.20;;;;;;5056014;28;20187;-91
2022/09/03 04:18:42;;;;;;;2.47;1.50;;;12.30;74.30;;;;;;5054878;28;20673;-91
2022/09/03 04:21:13;;;;;;;2.63;1.50;;;12.30;74.30;;;;;;5055297;28;20238;-92
2022/09/03 04:23:42;;;;;;;1.90;1.43;;;12.30;74.40;;;;;;5054926;28;20172;-91
2022/09/03 04:26:10;;;;;;;3.47;1.53;;;12.30;74.40;;;;;;5055079;28;20176;-92
2022/09/03 04:28:36;;;;;;;1.50;1.40;;;12.30;74.30;;;;;;5054557;28;20196;-92
2022/09/03 04:31:06;;;;;;;1.97;1.57;;;12.30;74.40;;;;;;5054176;28;20187;-92
2022/09/03 04:33:33;;;;;;;2.20;1.37;;;12.30;74.50;;;;;;5054688;28;20176;-91
2022/09/03 04:36:07;;;;;;;3.20;1.63;;;12.30;74.60;;;;;;5054111;28;20267;-91
2022/09/03 04:38:34;;;;;;;2.43;1.50;;;12.20;74.60;;;;;;5054495;28;20287;-91
2022/09/03 04:41:00;;;;;;;1.50;1.40;;;12.20;74.60;;;;;;5054431;28;20222;-91
2022/09/03 04:43:27;;;;;;;2.60;1.53;;;12.20;74.70;;;;;;5054329;28;20543;-91
2022/09/03 04:45:59;;;;;;;2.20;1.60;;;12.10;74.90;;;;;;5054377;28;20176;-91
2022/09/03 04:48:26;;;;;;;2.90;1.47;;;12.10;75.10;;;;;;5054288;28;20731;-91
2022/09/03 04:50:53;;;;;;;3.23;1.70;;;12.10;75.00;;;;;;5053806;28;20261;-91
2022/09/03 04:53:19;;;;;;;3.30;1.50;;;12.20;75.10;;;;;;5054161;28;20187;-91
2022/09/03 04:55:45;;;;;;;2.90;1.40;;;12.20;75.00;;;;;;5054048;28;20172;-92
2022/09/03 04:58:10;;;;;;;3.30;1.87;;;12.20;75.10;;;;;;5053863;28;20199;-92
2022/09/03 05:00:37;;;;;;;1.47;1.30;;;12.20;74.90;;;;;;5054379;28;20184;-91
2022/09/03 05:03:04;;;;;;;1.50;1.30;;;12.20;74.90;;;;;;5053725;28;20183;-92
2022/09/03 05:05:30;;;;;;;2.50;1.43;;;12.20;74.90;;;;;;5054873;28;20589;-92
2022/09/03 05:08:03;;;;;;;1.50;1.40;;;12.20;74.90;;;;;;5054564;28;20292;-92
2022/09/03 05:10:29;;;;;;;2.23;1.70;;;12.20;74.80;;;;;;5054051;28;20200;-92
2022/09/03 05:13:04;;;;;;;3.43;1.53;;;12.30;74.80;;;;;;5053916;28;20180;-92
2022/09/03 05:15:31;;;;;;;2.97;1.97;;;12.40;74.70;;;;;;5054358;28;20172;-91
2022/09/03 05:18:01;;;;;;;1.50;1.40;;;12.30;74.60;;;;;;5053598;28;20670;-91
2022/09/03 05:20:31;;;;;;;1.90;1.57;;;12.40;74.50;;;;;;5053832;28;20172;-92
2022/09/03 05:23:02;;;;;;;2.30;1.50;;;12.50;74.30;;;;;;5054754;28;20199;-92
2022/09/03 05:25:30;;;;;;;4.30;1.60;;;12.50;74.20;;;;;;5053863;28;20172;-92
2022/09/03 05:27:57;;;;;;;4.23;1.30;;;12.60;74.10;;;;;;5053911;28;20282;-92
2022/09/03 05:30:23;;;;;;;2.30;1.47;;;12.70;73.80;;;;;;5054651;28;20196;-92
2022/09/03 05:32:48;;;;;;;1.30;1.20;;;12.80;73.60;;;;;;5053982;28;20175;-92
2022/09/03 05:35:14;;;;;;;3.93;1.20;;;12.80;73.40;;;;;;5054327;28;20172;-92
2022/09/03 05:37:40;;;;;;;2.80;1.67;;;12.90;73.10;;;;;;5054314;28;20195;-92
2022/09/03 05:40:09;;;;;;;7.43;1.20;;;13.10;72.60;;;;;;5054250;28;20198;-92
2022/09/03 05:42:37;;;;;;;1.53;1.40;;;13.10;72.40;;;;;;5055191;28;20619;-92
2022/09/03 05:45:09;;;;;;;1.47;1.30;;;13.20;72.20;;;;;;5054477;28;20187;-92
2022/09/03 05:47:39;;;;;;;1.73;1.30;;;13.30;71.90;;;;;;5054532;28;20300;-92
2022/09/03 05:50:09;;;;;;;3.43;1.30;;;13.30;71.70;;;;;;5054516;28;20230;-92
2022/09/03 05:52:38;;;;;;;5.87;2.33;;;13.40;71.40;;;;;;5054727;28;20172;-92
2022/09/03 05:55:04;;;;;;;3.07;1.50;;;13.50;71.20;;;;;;5052602;28;20171;-91
2022/09/03 05:57:30;;;;;;;3.77;1.30;;;13.50;71.00;;;;;;5052526;28;20203;-92
2022/09/03 05:59:56;;;;;;;3.30;1.40;;;13.60;70.80;;;;;;5052305;28;20180;-92
2022/09/03 06:02:22;;;;;;;7.60;1.30;;;13.70;70.70;;;;;;5052388;28;20184;-90
2022/09/03 06:04:48;;;;;;;1.30;1.20;;;13.70;70.60;;;;;;5055190;28;20218;-92
2022/09/03 06:07:14;;;;;;;2.70;1.63;;;13.80;70.30;;;;;;5053730;28;20207;-92
2022/09/03 06:09:40;;;;;;;2.37;1.50;;;13.80;70.30;;;;;;5053783;28;20203;-92
2022/09/03 06:12:07;;;;;;;6.87;1.60;;;13.90;70.60;;;;;;5057700;28;20653;-92
2022/09/03 06:14:32;;;;;;;2.83;1.60;;;13.90;70.20;;;;;;5057995;28;20215;-92
2022/09/03 06:16:58;;;;;;;1.73;1.33;;;13.90;70.20;;;;;;5058093;28;20176;-92
2022/09/03 06:19:23;;;;;;;4.40;1.60;;;14.00;70.00;;;;;;5058763;28;20548;-92
2022/09/03 06:21:49;;;;;;;1.33;1.20;;;14.10;69.70;;;;;;5058511;28;20176;-92
2022/09/03 06:24:19;;;;;;;1.63;1.27;;;14.20;69.40;;;;;;5058607;28;20164;-92
2022/09/03 06:26:45;;;;;;;1.43;1.30;;;14.20;69.00;;;;;;5058379;28;20172;-92
2022/09/03 06:29:11;;;;;;;2.23;1.20;;;14.30;68.70;;;;;;5058643;28;20204;-92
2022/09/03 06:31:38;;;;;;;2.90;1.40;;;14.40;68.20;;;;;;5057068;28;20172;-92
2022/09/03 06:34:04;;;;;;;1.20;1.03;;;14.50;68.80;;;;;;5059056;28;20176;-92
2022/09/03 06:36:31;;;;;;;1.57;1.43;;;14.60;68.10;;;;;;5058259;28;20647;-93
2022/09/03 06:38:57;;;;;;;2.37;1.60;;;14.70;68.10;;;;;;5058782;28;20196;-92
2022/09/03 06:41:26;;;;;;;2.03;1.20;;;14.70;67.00;;;;;;5058660;28;20187;-91
2022/09/03 06:44:04;;;;;;;2.77;1.50;;;14.70;67.20;;;;;;5057218;28;20221;-93
2022/09/03 06:46:37;;;;;;;2.07;1.23;;;14.80;67.80;;;;;;5059430;28;20171;-91
2022/09/03 06:49:05;;;;;;;2.57;1.40;;;14.90;67.20;;;;;;5058231;28;20219;-93
2022/09/03 06:51:32;;;;;;;2.83;1.50;;;15.00;66.70;;;;;;5059002;28;20199;-93
2022/09/03 06:54:08;;;;;;;7.37;1.33;;;15.10;66.20;;;;;;5057624;28;20223;-92
2022/09/03 06:56:35;;;;;;;3.83;1.20;;;15.20;66.20;;;;;;5058844;28;20167;-93
2022/09/03 06:59:14;;;;;;;2.43;1.50;;;15.30;66.00;;;;;;5057852;28;20294;-92
2022/09/03 07:01:43;;;;;;;2.13;1.30;;;15.50;65.30;;;;;;5060419;28;20174;-92
2022/09/03 07:04:09;;;;;;;2.87;1.27;;;15.60;65.30;;;;;;5058482;28;20668;-93
2022/09/03 07:06:46;;;;;;;1.67;1.40;;;15.70;64.50;;;;;;5059116;28;20183;-92
2022/09/03 07:09:13;;;;;;;1.77;1.20;;;15.80;64.70;;;;;;5057213;28;20211;-92
2022/09/03 07:11:48;;;;;;;3.83;1.50;;;16.00;63.70;;;;;;5056826;28;20197;-93
2022/09/03 07:14:18;;;;;;;4.43;1.27;;;16.00;63.70;;;;;;5056822;28;20201;-91
2022/09/03 07:16:44;;;;;;;3.25;1.55;;;16.20;63.50;;;;;;5055142;28;20171;-92
2022/09/03 07:19:12;;;;;;;1.25;1.00;;;16.20;62.80;;;;;;5054811;28;20207;-92
2022/09/03 07:21:40;;;;;;;10.10;1.50;;;16.30;62.30;;;;;;5054872;28;20190;-91
2022/09/03 07:24:06;;;;;;;5.00;1.57;;;16.40;61.80;;;;;;5056378;28;20641;-90
2022/09/03 07:26:34;;;;;;;3.15;1.30;;;16.50;60.90;;;;;;5055861;28;20173;-92
2022/09/03 07:29:00;;;;;;;2.83;1.38;;;16.60;62.00;;;;;;5054473;28;20200;-91
2022/09/03 07:31:30;;;;;;;3.45;1.35;;;16.70;61.90;;;;;;5058709;28;20169;-93
2022/09/03 07:34:04;;;;;;;1.67;1.20;;;16.80;61.20;;;;;;5062015;28;20509;-93
2022/09/03 07:36:37;;;;;;;1.30;1.20;;;16.90;60.80;;;;;;5060344;28;20164;-93
2022/09/03 07:39:03;;;;;;;2.08;1.35;;;16.90;61.30;;;;;;5060830;28;20196;-93
2022/09/03 07:41:31;;;;;;;2.97;1.42;;;17.10;60.60;;;;;;5061628;28;20650;-92
2022/09/03 07:43:58;;;;;;;4.13;1.48;;;17.10;59.00;;;;;;5056115;28;20230;-92
2022/09/03 07:46:26;;;;;;;5.53;1.23;;;17.20;59.60;;;;;;5054523;28;20172;-91
2022/09/03 07:49:01;;;;;;;2.85;1.38;;;17.20;59.00;;;;;;5055273;28;20365;-89
2022/09/03 07:51:32;;;;;;;4.40;1.67;;;17.30;59.30;;;;;;5054565;28;20260;-90
2022/09/03 07:54:08;;;;;;;2.47;1.60;;;17.50;58.20;;;;;;5054862;28;20176;-92
2022/09/03 07:56:35;;;;;;;3.33;1.40;;;17.70;58.80;;;;;;5057480;28;20164;-90
2022/09/03 07:59:02;;;;;;;1.85;1.20;;;17.80;58.30;;;;;;5056782;28;20215;-92
2022/09/03 08:02:32;;;;;;;3.75;0.85;;;18.00;58.40;;;;;;5056790;28;20175;-92
2022/09/03 08:04:59;;;;;;;1.42;1.00;;;18.00;58.20;;;;;;5054830;28;20580;-92
2022/09/03 08:07:40;;;;;;;2.03;1.20;;;18.00;56.60;;;;;;5049062;28;20208;-91
2022/09/03 08:10:06;;;;;;;1.83;1.35;;;17.90;56.50;;;;;;5056812;28;20199;-92
2022/09/03 08:12:31;;;;;;;1.40;1.30;;;17.80;57.60;;;;;;5054619;28;20183;-93
2022/09/03 08:14:58;;;;;;;1.23;1.02;;;17.90;56.50;;;;;;5055048;28;20175;-93
2022/09/03 08:17:23;;;;;;;5.38;1.17;;;18.10;56.60;;;;;;5056291;28;20196;-93
2022/09/03 08:19:49;;;;;;;4.53;1.50;;;18.20;56.60;;;;;;5057211;28;20184;-93
2022/09/03 08:22:15;;;;;;;2.75;1.25;;;18.10;55.90;;;;;;5058617;28;20198;-93
2022/09/03 08:24:41;;;;;;;4.22;1.17;;;18.00;55.30;;;;;;5061585;28;20179;-93
2022/09/03 08:27:10;;;;;;;1.17;1.08;;;18.10;56.60;;;;;;5061434;28;20172;-94
2022/09/03 08:29:42;;;;;;;2.30;1.25;;;17.90;55.70;;;;;;5067913;28;20200;-93
2022/09/03 08:32:07;;;;;;;2.83;1.23;;;17.80;56.40;;;;;;5063747;28;20204;-94
2022/09/03 08:34:49;;;;;;;6.07;1.50;;;17.80;56.20;;;;;;5071060;28;20198;-93
2022/09/03 08:37:15;;;;;;;2.50;1.20;;;17.90;56.00;;;;;;5055212;28;20302;-88
2022/09/03 08:39:40;;;;;;;1.95;1.65;;;18.20;56.50;;;;;;5053008;28;20266;-88
2022/09/03 08:42:18;;;;;;;4.95;1.30;;;18.30;55.60;;;;;;5053108;28;20219;-88
2022/09/03 08:44:57;;;;;;;2.65;1.20;;;18.50;55.40;;;;;;5053058;28;20172;-88
2022/09/03 08:47:37;;;;;;;4.30;1.15;;;18.60;54.90;;;;;;5052677;28;20216;-90
2022/09/03 08:50:22;;;;;;;3.95;2.38;;;18.70;55.30;;;;;;5051399;28;20212;-89
2022/09/03 08:53:03;;;;;;;3.60;1.10;;;18.80;54.40;;;;;;5052442;28;20222;-89
2022/09/03 08:55:43;;;;;;;2.85;1.15;;;18.90;54.60;;;;;;5052842;28;20242;-89
2022/09/03 08:58:17;;;;;;;3.88;1.10;;;19.10;54.70;;;;;;5053490;28;20196;-88
2022/09/03 09:00:48;;;;;;;3.45;1.20;;;19.30;54.00;;;;;;5052759;28;20175;-89
2022/09/03 09:03:29;;;;;;;1.20;1.10;;;19.50;53.10;;;;;;5053893;28;20175;-90
2022/09/03 09:05:58;;;;;;;3.20;1.48;;;19.50;52.90;;;;;;5053868;28;20226;-90
2022/09/03 09:08:35;;;;;;;3.63;1.45;;;19.70;54.10;;;;;;5052942;28;20606;-89
2022/09/03 09:11:49;;;;;;;1.70;1.08;;;19.90;51.80;;;;;;5052238;28;20223;-90
2022/09/03 09:14:18;;;;;;;2.35;1.23;;;20.00;50.50;;;;;;5035060;28;20649;-90
2022/09/03 09:16:56;;;;;;;2.03;0.95;;;20.00;51.00;;;;;;5052384;28;20183;-90
2022/09/03 09:19:47;;;;;;;2.22;1.67;;;20.30;50.70;;;;;;5052081;28;20175;-89
2022/09/03 09:22:31;;;;;;;7.35;1.35;;;20.30;50.10;;;;;;5052269;28;20787;-91
2022/09/03 09:25:04;;;;;;;1.00;0.90;;;20.40;50.60;;;;;;5052470;28;20168;-89
2022/09/03 09:27:32;;;;;;;1.25;1.00;;;20.50;49.30;;;;;;5053729;28;20196;-89
2022/09/03 09:30:02;;;;;;;1.63;1.10;;;20.50;49.40;;;;;;5052736;28;20567;-91
2022/09/03 09:32:30;;;;;;;4.20;1.58;;;20.50;49.00;;;;;;5052518;28;20179;-89
2022/09/03 09:34:56;;;;;;;6.35;1.20;;;20.50;49.80;;;;;;5051328;28;20180;-89
2022/09/03 09:37:22;;;;;;;3.58;0.85;;;20.70;49.10;;;;;;5052502;28;20215;-90
2022/09/03 09:39:59;;;;;;;3.25;1.20;;;20.80;47.30;;;;;;5053429;28;20171;-90
2022/09/03 09:42:26;;;;;;;3.67;1.05;;;20.90;47.10;;;;;;5052408;28;20184;-90
2022/09/03 09:44:52;;;;;;;1.55;0.98;;;21.00;46.80;;;;;;5052396;28;20211;-90
2022/09/03 09:48:03;;;;;;;7.97;1.38;;;20.90;46.30;;;;;;5052737;28;20203;-90
2022/09/03 09:50:35;;;;;;;2.60;0.90;;;20.80;47.60;;;;;;5044374;28;20615;-93
2022/09/03 09:53:16;;;;;;;0.93;0.90;;;20.70;47.10;;;;;;5052728;28;20222;-91
2022/09/03 09:56:00;;;;;;;3.63;1.00;;;20.90;47.20;;;;;;5053481;28;20159;-90
2022/09/03 09:58:29;;;;;;;1.58;0.90;;;21.20;44.60;;;;;;5052445;28;20236;-90
2022/09/03 10:01:02;;;;;;;1.92;0.88;;;21.20;45.20;;;;;;5053468;28;20578;-90
2022/09/03 10:03:34;;;;;;;6.72;1.10;;;21.20;44.90;;;;;;5052937;28;20168;-91
2022/09/03 10:08:51;;;;;;;1.35;0.98;;;21.50;44.70;;;;;;5053432;28;20282;-90
2022/09/03 10:11:24;;;;;;;3.20;1.20;;;21.60;44.60;;;;;;5051983;28;20226;-89
2022/09/03 10:13:52;;;;;;;3.60;1.00;;;21.70;45.30;;;;;;5052000;28;20164;-89
2022/09/03 10:16:26;;;;;;;2.70;1.33;;;21.80;43.90;;;;;;5052104;28;20171;-89
2022/09/03 10:19:01;;;;;;;3.92;1.00;;;21.80;44.10;;;;;;5051944;28;20221;-89
2022/09/03 10:21:36;;;;;;;1.35;1.10;;;21.90;42.90;;;;;;5052350;28;20167;-89
2022/09/03 10:24:14;;;;;;;2.00;0.98;;;22.00;42.40;;;;;;5053559;28;20298;-89
2022/09/03 10:26:44;;;;;;;2.20;1.05;;;22.20;43.10;;;;;;5052304;28;20159;-89
2022/09/03 10:29:13;;;;;;;1.50;0.85;;;22.20;42.60;;;;;;5052270;28;20211;-90
2022/09/03 10:32:00;;;;;;;2.85;1.00;;;22.20;42.30;;;;;;5052237;28;20175;-88
2022/09/03 10:34:57;;;;;;;1.83;1.00;;;22.40;42.00;;;;;;5053034;28;20243;-90
2022/09/03 10:37:41;;;;;;;1.25;0.80;;;22.60;39.50;;;;;;5051592;28;20196;-90
2022/09/03 10:40:34;;;;;;;3.13;0.75;;;22.20;39.50;;;;;;5052459;28;20238;-89
2022/09/03 10:43:30;;;;;;;0.90;0.77;;;22.20;39.00;;;;;;5051841;28;20662;-89
2022/09/03 10:46:09;;;;;;;3.15;1.00;;;22.40;39.30;;;;;;5052899;28;20298;-89
2022/09/03 10:49:00;;;;;;;1.10;1.00;;;22.50;39.10;;;;;;5051607;28;20230;-90
2022/09/03 10:51:35;;;;;;;2.25;0.85;;;22.40;39.00;;;;;;5053092;28;20259;-90
2022/09/03 10:54:19;;;;;;;1.17;1.08;;;22.60;39.00;;;;;;5051634;28;20180;-90
2022/09/03 10:57:31;;;;;;;2.22;1.20;;;22.50;38.70;;;;;;5053304;28;20168;-90
2022/09/03 11:00:09;;;;;;;4.25;0.98;;;22.70;38.40;;;;;;5055625;28;20198;-90
2022/09/03 11:02:56;;;;;;;5.18;0.95;;;23.00;38.80;;;;;;5056299;28;20175;-90
2022/09/03 11:05:37;;;;;;;3.75;1.10;;;23.00;37.80;;;;;;5055197;28;20225;-90
2022/09/03 11:08:20;;;;;;;4.60;0.98;;;22.90;35.90;;;;;;5056188;28;20226;-89
2022/09/03 11:10:53;;;;;;;2.55;0.80;;;22.60;36.20;;;;;;5056626;28;20184;-89
2022/09/03 11:13:28;;;;;;;1.60;0.82;;;22.50;37.10;;;;;;5055904;28;20571;-89
2022/09/03 11:16:03;;;;;;;4.20;0.95;;;22.70;37.80;;;;;;5055236;28;20267;-90
2022/09/03 11:18:39;;;;;;;2.17;0.90;;;22.80;37.90;;;;;;5055229;28;20666;-89
2022/09/03 11:21:10;;;;;;;2.90;1.00;;;23.00;35.90;;;;;;5054811;28;20633;-90
2022/09/03 11:23:42;;;;;;;1.58;0.80;;;23.00;36.90;;;;;;5054893;28;20175;-90
2022/09/03 11:26:11;;;;;;;6.88;0.88;;;23.20;36.80;;;;;;5055062;28;20168;-91
2022/09/03 11:28:41;;;;;;;2.08;0.93;;;23.20;35.90;;;;;;5054569;28;20278;-89
2022/09/03 11:31:17;;;;;;;1.73;1.00;;;23.20;36.80;;;;;;5056175;28;20188;-89
2022/09/03 11:33:48;;;;;;;1.83;1.02;;;23.40;37.30;;;;;;5054538;28;20183;-91
2022/09/03 11:36:27;;;;;;;5.00;1.23;;;23.50;36.40;;;;;;5054423;28;20591;-89
2022/09/03 11:38:52;;;;;;;3.03;1.20;;;23.30;36.50;;;;;;5054891;28;20233;-90
2022/09/03 11:41:21;;;;;;;1.42;0.80;;;23.30;37.10;;;;;;5055157;28;20172;-90
2022/09/03 11:43:47;;;;;;;1.65;0.85;;;23.30;37.40;;;;;;5054927;28;20181;-91
2022/09/03 11:46:22;;;;;;;3.55;0.80;;;23.50;37.20;;;;;;5054908;28;20183;-90
2022/09/03 11:48:54;;;;;;;1.65;0.90;;;23.40;37.40;;;;;;5054804;28;20235;-90
2022/09/03 11:51:36;;;;;;;5.03;1.13;;;23.50;37.10;;;;;;5055633;28;20176;-91
2022/09/03 11:54:26;;;;;;;3.58;1.00;;;23.20;37.20;;;;;;5054726;28;20263;-91
2022/09/03 11:57:12;;;;;;;2.50;1.10;;;23.10;37.50;;;;;;5044616;28;20176;-90
2022/09/03 11:59:40;;;;;;;1.17;0.90;;;23.00;38.70;;;;;;5054486;28;20175;-90
2022/09/03 12:02:23;;;;;;;4.28;0.90;;;22.70;39.40;;;;;;5054525;28;20177;-90
2022/09/03 12:05:24;;;;;;;2.75;1.10;;;22.50;39.00;;;;;;5055525;28;20168;-89
2022/09/03 12:08:10;;;;;;;2.30;1.00;;;22.60;38.00;;;;;;5053013;28;20192;-89
2022/09/03 12:10:48;;;;;;;5.63;1.30;;;22.70;39.40;;;;;;5054819;28;20191;-89
2022/09/03 12:13:26;;;;;;;5.03;1.40;;;22.80;38.50;;;;;;5054408;28;20255;-90
2022/09/03 12:16:24;;;;;;;3.13;1.02;;;23.10;38.90;;;;;;5055097;28;20172;-90
2022/09/03 12:18:51;;;;;;;4.03;1.15;;;23.00;37.60;;;;;;5054231;28;20196;-90
2022/09/03 12:21:18;;;;;;;5.40;1.30;;;22.80;37.70;;;;;;5055229;28;20172;-90
2022/09/03 12:23:48;;;;;;;5.88;1.20;;;22.40;37.40;;;;;;5054299;28;20271;-90
2022/09/03 12:26:18;;;;;;;2.25;1.40;;;22.30;38.40;;;;;;5053603;28;20171;-91
2022/09/03 12:28:58;;;;;;;2.83;1.63;;;22.30;38.40;;;;;;5054031;28;20246;-90
2022/09/03 12:31:42;;;;;;;3.88;1.10;;;22.30;38.30;;;;;;5054061;28;20175;-89
2022/09/03 12:34:14;;;;;;;4.18;1.20;;;22.30;38.30;;;;;;5054031;28;20171;-90
2022/09/03 12:36:52;;;;;;;3.33;1.02;;;22.50;38.80;;;;;;5053860;28;20196;-89
2022/09/03 12:39:22;;;;;;;3.05;1.10;;;22.90;37.90;;;;;;5055117;28;20670;-91
2022/09/03 12:42:05;;;;;;;6.82;0.98;;;23.20;37.10;;;;;;5053451;28;20175;-90
2022/09/03 12:44:36;;;;;;;7.07;1.30;;;23.40;36.40;;;;;;5053414;28;20251;-91
2022/09/03 12:47:17;;;;;;;3.28;1.20;;;23.50;36.20;;;;;;5054526;28;20198;-90
2022/09/03 12:49:46;;;;;;;2.38;1.35;;;23.80;36.10;;;;;;5053210;28;20200;-90
2022/09/03 12:52:33;;;;;;;5.22;1.13;;;23.90;35.80;;;;;;5053542;28;20175;-91
2022/09/03 12:55:00;;;;;;;3.70;1.77;;;24.20;35.80;;;;;;5054276;28;20247;-91
2022/09/03 12:57:34;;;;;;;3.40;0.98;;;24.20;35.00;;;;;;5053221;28;20198;-90
2022/09/03 13:00:09;;;;;;;5.78;0.98;;;24.30;35.60;;;;;;5053764;28;20172;-91
2022/09/03 13:03:01;;;;;;;6.00;1.27;;;24.20;35.50;;;;;;5053783;28;20246;-89
2022/09/03 13:05:41;;;;;;;1.77;1.20;;;23.60;35.10;;;;;;5053045;28;20219;-91
2022/09/03 13:08:09;;;;;;;3.10;0.90;;;23.20;36.30;;;;;;5053240;28;20234;-91
2022/09/03 13:10:41;;;;;;;2.55;1.10;;;23.10;37.00;;;;;;5053533;28;20233;-89
2022/09/03 13:13:28;;;;;;;4.47;1.10;;;23.30;36.60;;;;;;5052896;28;20173;-90
2022/09/03 13:16:10;;;;;;;2.47;1.02;;;23.50;35.10;;;;;;5052735;28;20176;-89
2022/09/03 13:18:51;;;;;;;1.58;0.93;;;23.60;35.80;;;;;;5052824;28;20220;-90
2022/09/03 13:21:47;;;;;;;1.73;0.95;;;23.90;35.90;;;;;;5052464;28;20171;-90
2022/09/03 13:24:38;;;;;;;2.28;1.10;;;23.60;35.40;;;;;;5053530;28;20168;-91